Time;durP1;ratioP1;P1;durP2;ratioP2;P2;SDS_P1;SDS_P2;PMS_P1;PMS_P2;Temp;Humidity;BMP_temperature;BMP_pressure;BME280_temperature;BME280_humidity;BME280_pressure;Samples;Min_cycle;Max_cycle;Signal;HPM_P1;HPM_P2
2023/03/23 00:01:36;;;;;;;10.95;8.00;;;6.70;99.90;;;;;;5068557;28;20055;-75
2023/03/23 00:04:06;;;;;;;11.48;7.50;;;6.70;99.90;;;;;;5068704;28;20079;-75
2023/03/23 00:06:34;;;;;;;17.70;8.10;;;6.80;99.90;;;;;;5070190;28;20148;-76
2023/03/23 00:09:03;;;;;;;11.98;7.93;;;6.80;99.90;;;;;;5064518;28;20592;-77
2023/03/23 00:11:33;;;;;;;14.13;8.27;;;6.80;99.90;;;;;;5060831;28;20052;-76
2023/03/23 00:14:02;;;;;;;14.88;8.32;;;6.80;99.90;;;;;;5059770;28;20048;-75
2023/03/23 00:16:32;;;;;;;14.13;7.85;;;6.90;99.90;;;;;;5058705;28;20048;-76
2023/03/23 00:19:03;;;;;;;12.57;8.55;;;6.80;99.90;;;;;;5069207;28;20044;-76
2023/03/23 00:21:34;;;;;;;14.38;8.75;;;6.80;99.90;;;;;;5067791;28;20106;-76
2023/03/23 00:24:05;;;;;;;12.80;9.07;;;6.80;99.90;;;;;;5068963;28;20061;-76
2023/03/23 00:26:34;;;;;;;15.25;9.32;;;6.80;99.90;;;;;;5066675;28;20070;-76
2023/03/23 00:29:03;;;;;;;11.55;9.10;;;6.80;99.90;;;;;;5070953;28;20048;-76
2023/03/23 00:31:32;;;;;;;13.50;7.90;;;6.80;99.90;;;;;;5070533;28;20048;-76
2023/03/23 00:34:03;;;;;;;13.35;8.98;;;6.70;99.90;;;;;;5068784;28;20508;-76
2023/03/23 00:36:35;;;;;;;13.18;8.75;;;6.70;99.90;;;;;;5069577;28;20159;-76
2023/03/23 00:39:04;;;;;;;12.13;7.80;;;6.60;99.90;;;;;;5057217;28;20057;-76
2023/03/23 00:41:32;;;;;;;11.95;8.57;;;6.60;99.90;;;;;;5069057;28;20068;-77
2023/03/23 00:44:01;;;;;;;12.02;8.80;;;6.60;99.90;;;;;;5070735;28;20221;-76
2023/03/23 00:46:29;;;;;;;14.02;9.52;;;6.50;99.90;;;;;;5044635;28;20079;-76
2023/03/23 00:48:57;;;;;;;10.30;8.32;;;6.50;99.90;;;;;;5070251;28;20382;-77
2023/03/23 00:51:26;;;;;;;13.07;8.10;;;6.50;99.90;;;;;;5050044;28;20048;-76
2023/03/23 00:53:55;;;;;;;11.57;7.68;;;6.60;99.90;;;;;;5049177;28;20135;-76
2023/03/23 00:56:23;;;;;;;11.80;8.02;;;6.60;99.90;;;;;;5068594;28;20564;-77
2023/03/23 00:58:53;;;;;;;10.77;8.25;;;6.60;99.90;;;;;;5068455;28;20044;-76
2023/03/23 01:01:20;;;;;;;15.23;8.80;;;6.60;99.90;;;;;;5051779;28;20127;-76
2023/03/23 01:03:49;;;;;;;11.98;7.63;;;6.60;99.90;;;;;;5069947;28;20509;-76
2023/03/23 01:06:17;;;;;;;12.18;7.85;;;6.60;99.90;;;;;;5067414;28;20406;-77
2023/03/23 01:08:45;;;;;;;11.32;6.65;;;6.60;99.90;;;;;;5061474;28;20156;-77
2023/03/23 01:11:17;;;;;;;9.63;7.60;;;6.60;99.90;;;;;;5070180;28;20072;-77
2023/03/23 01:13:45;;;;;;;10.63;7.25;;;6.60;99.90;;;;;;5069811;28;20495;-77
2023/03/23 01:16:14;;;;;;;13.65;7.60;;;6.50;99.90;;;;;;5052999;28;20048;-76
2023/03/23 01:18:42;;;;;;;14.65;8.52;;;6.50;99.90;;;;;;5063757;28;20053;-76
2023/03/23 01:21:13;;;;;;;10.82;7.50;;;6.50;99.90;;;;;;5065720;28;20470;-77
2023/03/23 01:23:41;;;;;;;8.98;6.57;;;6.60;99.90;;;;;;5069572;28;20052;-77
2023/03/23 01:26:12;;;;;;;11.00;7.72;;;6.60;99.90;;;;;;5089966;28;20051;-77
2023/03/23 01:28:41;;;;;;;11.13;7.55;;;6.50;99.90;;;;;;5052953;28;20048;-76
2023/03/23 01:31:12;;;;;;;9.18;6.95;;;6.60;99.90;;;;;;5064742;28;20051;-76
2023/03/23 01:33:41;;;;;;;13.00;7.28;;;6.50;99.90;;;;;;5069154;28;20148;-76
2023/03/23 01:36:13;;;;;;;10.57;8.00;;;6.60;99.90;;;;;;5039994;28;20092;-76
2023/03/23 01:38:44;;;;;;;11.35;6.78;;;6.60;99.90;;;;;;5047940;28;20059;-77
2023/03/23 01:41:13;;;;;;;10.88;6.78;;;6.60;99.90;;;;;;5059664;28;20076;-76
2023/03/23 01:43:59;;;;;;;12.90;7.63;;;6.60;99.90;;;;;;5032956;28;20064;-75
2023/03/23 01:46:30;;;;;;;12.95;7.70;;;6.60;99.90;;;;;;5066701;28;20052;-76
2023/03/23 01:49:06;;;;;;;10.07;7.65;;;6.60;99.90;;;;;;5038637;28;20041;-76
2023/03/23 01:51:37;;;;;;;10.18;8.30;;;6.60;99.90;;;;;;5073015;28;20532;-76
2023/03/23 01:54:08;;;;;;;11.77;8.10;;;6.60;99.90;;;;;;5056181;28;20437;-76
2023/03/23 01:56:45;;;;;;;10.63;7.88;;;6.70;99.90;;;;;;5038836;28;20121;-76
2023/03/23 01:59:15;;;;;;;9.80;7.75;;;6.60;99.90;;;;;;5064192;28;20525;-75
2023/03/23 02:01:48;;;;;;;10.60;7.90;;;6.60;99.90;;;;;;5052415;28;20525;-76
2023/03/23 02:04:18;;;;;;;14.27;8.93;;;6.70;99.90;;;;;;5053727;28;20099;-76
2023/03/23 02:06:46;;;;;;;11.10;8.88;;;6.70;99.90;;;;;;5067881;28;20131;-76
2023/03/23 02:09:19;;;;;;;9.88;8.40;;;6.70;99.90;;;;;;5072458;28;20055;-76
2023/03/23 02:11:50;;;;;;;10.68;7.70;;;6.70;99.90;;;;;;5072447;28;20037;-75
2023/03/23 02:14:21;;;;;;;13.18;9.52;;;6.70;99.90;;;;;;5072778;28;20466;-75
2023/03/23 02:16:57;;;;;;;9.02;8.02;;;6.70;99.90;;;;;;5069010;28;21373;-77
2023/03/23 02:19:53;;;;;;;10.70;8.18;;;6.70;99.90;;;;;;5054517;28;20084;-76
2023/03/23 02:22:55;;;;;;;11.40;8.00;;;6.60;99.90;;;;;;5054566;28;20055;-77
2023/03/23 02:25:59;;;;;;;12.52;8.02;;;6.60;99.90;;;;;;5037245;28;20044;-80
2023/03/23 02:28:43;;;;;;;;;;;6.60;99.90;;;;;;5072569;28;20056;-80
2023/03/23 02:31:38;;;;;;;10.43;8.07;;;6.50;99.90;;;;;;5073761;28;20376;-80
2023/03/23 02:34:17;;;;;;;11.95;8.15;;;6.50;99.90;;;;;;5043654;28;20048;-80
2023/03/23 02:36:51;;;;;;;10.13;7.60;;;6.50;99.90;;;;;;5061739;28;20447;-81
2023/03/23 02:39:23;;;;;;;11.40;8.55;;;6.50;99.90;;;;;;5071081;28;20044;-79
2023/03/23 02:41:56;;;;;;;9.75;7.10;;;6.60;99.90;;;;;;5075021;28;20052;-81
2023/03/23 02:44:27;;;;;;;11.18;9.18;;;6.50;99.90;;;;;;5052685;28;20072;-81
2023/03/23 02:46:56;;;;;;;11.95;7.95;;;6.50;99.90;;;;;;5053532;28;20060;-81
2023/03/23 02:49:28;;;;;;;10.55;7.78;;;6.60;99.90;;;;;;5072012;28;20102;-80
2023/03/23 02:51:58;;;;;;;9.80;7.55;;;6.60;99.90;;;;;;5053774;28;20044;-81
2023/03/23 02:54:28;;;;;;;12.07;8.55;;;6.60;99.90;;;;;;5071204;28;20057;-82
2023/03/23 02:56:58;;;;;;;10.98;8.32;;;6.60;99.90;;;;;;5065393;28;20072;-81
2023/03/23 02:59:29;;;;;;;11.70;8.90;;;6.60;99.90;;;;;;5052692;28;20048;-82
2023/03/23 03:02:03;;;;;;;11.85;7.63;;;6.60;99.90;;;;;;5052363;28;20049;-83
2023/03/23 03:04:34;;;;;;;12.40;8.50;;;6.60;99.90;;;;;;5068418;28;20406;-80
2023/03/23 03:07:24;;;;;;;10.55;7.22;;;6.60;99.90;;;;;;5065144;28;20037;-80
2023/03/23 03:09:57;;;;;;;9.40;7.03;;;6.70;99.90;;;;;;5057905;28;20055;-82
2023/03/23 03:12:35;;;;;;;11.20;7.70;;;6.70;99.90;;;;;;5082067;28;20538;-80
2023/03/23 03:15:14;;;;;;;8.85;7.32;;;6.70;99.90;;;;;;5086278;28;20049;-82
2023/03/23 03:17:54;;;;;;;9.02;6.78;;;6.70;99.90;;;;;;5075668;28;20052;-81
2023/03/23 03:20:26;;;;;;;9.10;6.38;;;6.70;99.90;;;;;;5051919;28;20658;-84
2023/03/23 03:22:55;;;;;;;11.00;8.48;;;6.70;99.90;;;;;;5037601;28;20106;-81
2023/03/23 03:25:23;;;;;;;9.57;6.93;;;6.70;99.90;;;;;;5091422;28;20062;-82
2023/03/23 03:27:56;;;;;;;9.38;6.03;;;6.70;99.90;;;;;;5053090;28;20560;-82
2023/03/23 03:30:40;;;;;;;9.43;6.95;;;6.70;99.90;;;;;;5035108;28;20045;-81
2023/03/23 03:33:08;;;;;;;8.38;6.35;;;6.60;99.90;;;;;;5052792;28;20548;-79
2023/03/23 03:35:41;;;;;;;6.75;5.93;;;6.60;99.90;;;;;;5042990;28;20524;-80
2023/03/23 03:38:11;;;;;;;8.00;6.72;;;6.60;99.90;;;;;;5072173;28;20045;-81
2023/03/23 03:40:40;;;;;;;7.78;6.50;;;6.60;99.90;;;;;;5073429;28;20055;-80
2023/03/23 03:43:08;;;;;;;8.70;6.00;;;6.60;99.90;;;;;;5054991;28;20060;-82
2023/03/23 03:45:35;;;;;;;11.98;7.25;;;6.70;99.90;;;;;;5037352;28;20044;-81
2023/03/23 03:48:03;;;;;;;10.00;7.03;;;6.70;99.90;;;;;;5072005;28;20485;-81
2023/03/23 03:50:32;;;;;;;9.25;6.55;;;6.70;99.90;;;;;;5071097;28;20053;-84
2023/03/23 03:53:01;;;;;;;6.90;6.20;;;6.70;99.90;;;;;;5049667;28;20076;-84
2023/03/23 03:55:29;;;;;;;9.73;6.70;;;6.70;99.90;;;;;;5068172;28;20041;-83
2023/03/23 03:57:57;;;;;;;6.80;5.95;;;6.70;99.90;;;;;;5064815;28;20399;-83
2023/03/23 04:00:52;;;;;;;7.60;5.57;;;6.80;99.90;;;;;;5010488;28;20122;-82
2023/03/23 04:03:26;;;;;;;7.68;6.97;;;6.80;99.90;;;;;;5065908;28;20072;-81
2023/03/23 04:06:05;;;;;;;7.07;5.50;;;6.80;99.90;;;;;;5034103;28;20048;-82
2023/03/23 04:08:37;;;;;;;8.07;6.25;;;6.80;99.90;;;;;;5060234;28;20048;-81
2023/03/23 04:11:06;;;;;;;7.63;6.40;;;6.80;99.90;;;;;;5062721;28;20135;-81
2023/03/23 04:13:34;;;;;;;8.35;5.82;;;6.90;99.90;;;;;;5087079;28;20044;-81
2023/03/23 04:16:02;;;;;;;9.38;6.25;;;6.90;99.90;;;;;;5082603;28;20530;-78
2023/03/23 04:18:31;;;;;;;7.68;6.20;;;6.90;99.90;;;;;;5068431;28;22332;-77
2023/03/23 04:21:02;;;;;;;7.68;5.97;;;6.90;99.90;;;;;;5044463;28;20509;-77
2023/03/23 04:23:33;;;;;;;11.10;7.43;;;6.90;99.90;;;;;;5068746;28;20084;-77
2023/03/23 04:26:05;;;;;;;;;;;6.90;99.90;;;;;;5072231;28;20059;-77
2023/03/23 04:28:38;;;;;;;10.40;6.45;;;7.00;99.90;;;;;;5064056;28;20371;-78
2023/03/23 04:31:44;;;;;;;10.40;6.20;;;7.00;99.90;;;;;;4985185;28;20058;-78
2023/03/23 04:34:32;;;;;;;9.07;6.47;;;7.00;99.90;;;;;;5086273;28;20508;-79
2023/03/23 04:37:00;;;;;;;8.57;5.90;;;7.00;99.90;;;;;;5067192;28;20096;-80
2023/03/23 04:39:33;;;;;;;9.68;7.28;;;7.10;99.90;;;;;;5052822;28;20076;-79
2023/03/23 04:42:05;;;;;;;10.40;7.07;;;7.10;99.90;;;;;;5070433;28;20057;-78
2023/03/23 04:44:57;;;;;;;9.20;6.80;;;7.10;99.90;;;;;;5061790;28;20092;-77
2023/03/23 04:47:52;;;;;;;9.90;6.57;;;7.10;99.90;;;;;;5030828;28;20071;-77
2023/03/23 04:50:36;;;;;;;7.57;6.50;;;7.20;99.90;;;;;;5033808;28;20057;-79
2023/03/23 04:53:17;;;;;;;7.65;6.07;;;7.20;99.90;;;;;;5024422;28;20373;-78
2023/03/23 04:55:49;;;;;;;7.15;5.18;;;7.20;99.90;;;;;;5045081;28;20104;-78
2023/03/23 04:58:56;;;;;;;11.13;7.35;;;7.30;99.90;;;;;;5053605;28;20102;-78
2023/03/23 05:01:57;;;;;;;10.55;6.82;;;7.20;99.90;;;;;;5037823;28;20114;-78
2023/03/23 05:04:25;;;;;;;9.10;6.57;;;7.30;99.90;;;;;;5033830;28;20139;-79
2023/03/23 05:07:12;;;;;;;13.35;6.18;;;7.20;99.90;;;;;;5054477;28;20053;-81
2023/03/23 05:09:48;;;;;;;8.02;5.75;;;7.30;99.90;;;;;;5036284;28;20370;-76
2023/03/23 05:12:21;;;;;;;8.85;6.00;;;7.30;99.90;;;;;;5049004;28;20417;-80
2023/03/23 05:14:55;;;;;;;12.40;6.32;;;7.30;99.90;;;;;;5024432;28;20059;-77
2023/03/23 05:17:26;;;;;;;9.07;7.13;;;7.30;99.90;;;;;;5060717;28;20049;-78
2023/03/23 05:19:58;;;;;;;11.65;6.32;;;7.30;99.90;;;;;;5048715;28;20044;-79
2023/03/23 05:22:44;;;;;;;7.63;5.93;;;7.20;99.90;;;;;;5062290;28;20556;-79
2023/03/23 05:25:13;;;;;;;7.13;6.18;;;7.30;99.90;;;;;;5068457;28;20060;-79
2023/03/23 05:27:48;;;;;;;10.90;6.90;;;7.20;99.90;;;;;;5045203;28;20579;-79
2023/03/23 05:30:26;;;;;;;10.65;6.18;;;7.10;99.90;;;;;;5049048;28;20599;-77
2023/03/23 05:32:56;;;;;;;9.43;6.97;;;7.10;99.90;;;;;;5050835;28;20589;-77
2023/03/23 05:35:43;;;;;;;7.38;6.55;;;7.00;99.90;;;;;;5051715;28;20125;-78
2023/03/23 05:38:11;;;;;;;9.90;6.47;;;7.10;99.90;;;;;;5051860;28;20064;-78
2023/03/23 05:40:39;;;;;;;7.30;6.07;;;7.10;99.90;;;;;;5069575;28;20040;-79
2023/03/23 05:43:14;;;;;;;7.65;6.13;;;7.10;99.90;;;;;;5036558;28;20068;-80
2023/03/23 05:46:02;;;;;;;8.45;6.40;;;7.20;99.90;;;;;;5071815;28;20049;-80
2023/03/23 05:48:32;;;;;;;8.13;6.70;;;7.20;99.90;;;;;;5087093;28;20084;-80
2023/03/23 05:51:00;;;;;;;9.10;5.88;;;7.30;99.90;;;;;;5070097;28;20048;-80
2023/03/23 05:53:30;;;;;;;8.73;6.88;;;7.30;99.90;;;;;;5053470;28;20044;-80
2023/03/23 05:56:01;;;;;;;7.25;6.55;;;7.40;99.90;;;;;;5053381;28;20056;-79
2023/03/23 05:59:01;;;;;;;10.65;6.72;;;7.40;99.90;;;;;;5030637;28;20056;-79
2023/03/23 06:01:33;;;;;;;10.27;6.30;;;7.40;99.90;;;;;;5050004;28;20135;-78
2023/03/23 06:04:01;;;;;;;10.18;7.05;;;7.50;99.90;;;;;;5058264;28;20048;-79
2023/03/23 06:06:48;;;;;;;7.70;6.40;;;7.50;99.90;;;;;;5072530;28;20049;-79
2023/03/23 06:09:16;;;;;;;11.40;6.65;;;7.50;99.90;;;;;;5050544;28;20061;-78
2023/03/23 06:12:05;;;;;;;11.27;6.63;;;7.60;99.90;;;;;;5039451;28;20057;-80
2023/03/23 06:14:40;;;;;;;12.35;6.35;;;7.60;99.90;;;;;;5035544;28;20053;-82
2023/03/23 06:17:10;;;;;;;10.38;6.45;;;7.60;99.90;;;;;;5055795;28;20048;-80
2023/03/23 06:19:40;;;;;;;8.63;6.20;;;7.60;99.90;;;;;;5072001;28;20052;-80
2023/03/23 06:22:14;;;;;;;8.30;5.88;;;7.70;99.90;;;;;;5072343;28;20265;-82
2023/03/23 06:24:45;;;;;;;13.68;6.60;;;7.70;99.90;;;;;;5073431;28;20045;-80
2023/03/23 06:27:16;;;;;;;17.20;7.07;;;7.80;99.90;;;;;;5046837;28;20103;-81
2023/03/23 06:29:45;;;;;;;13.18;6.55;;;7.80;99.90;;;;;;5035851;28;20136;-80
2023/03/23 06:32:14;;;;;;;12.75;5.95;;;7.80;99.90;;;;;;5066671;28;20114;-80
2023/03/23 06:34:46;;;;;;;12.70;6.05;;;7.90;99.90;;;;;;5051206;28;20045;-81
2023/03/23 06:37:32;;;;;;;12.77;6.00;;;7.90;99.90;;;;;;5066356;28;20056;-80
2023/03/23 06:40:10;;;;;;;9.32;5.32;;;7.90;99.90;;;;;;5068686;28;20087;-80
2023/03/23 06:42:40;;;;;;;8.15;5.40;;;8.00;99.90;;;;;;5070770;28;20044;-81
2023/03/23 06:45:27;;;;;;;8.55;4.90;;;8.00;99.90;;;;;;5063657;28;20135;-81
2023/03/23 06:48:15;;;;;;;12.35;6.03;;;8.00;99.90;;;;;;5052655;28;20064;-81
2023/03/23 06:50:45;;;;;;;21.05;6.90;;;8.10;99.90;;;;;;5037036;28;20143;-81
2023/03/23 06:53:13;;;;;;;14.23;4.88;;;8.20;99.90;;;;;;5053793;28;20040;-80
2023/03/23 06:55:43;;;;;;;11.25;5.47;;;8.30;99.90;;;;;;5053962;28;20056;-82
2023/03/23 06:58:11;;;;;;;16.73;5.95;;;8.40;99.90;;;;;;5067871;28;20567;-80
2023/03/23 07:00:40;;;;;;;9.50;4.80;;;8.50;99.90;;;;;;5068183;28;20050;-80
2023/03/23 07:03:10;;;;;;;7.65;4.68;;;8.50;99.90;;;;;;5049878;28;20044;-80
2023/03/23 07:05:41;;;;;;;11.35;4.47;;;8.50;99.90;;;;;;5053103;28;20511;-82
2023/03/23 07:08:11;;;;;;;11.02;5.88;;;8.60;99.90;;;;;;5053286;28;20413;-82
2023/03/23 07:10:53;;;;;;;17.05;7.93;;;8.60;99.90;;;;;;5052257;28;20524;-81
2023/03/23 07:13:26;;;;;;;20.60;8.65;;;8.70;99.90;;;;;;5047866;28;20509;-80
2023/03/23 07:15:58;;;;;;;9.70;5.18;;;8.70;99.90;;;;;;5036302;28;20041;-81
2023/03/23 07:18:26;;;;;;;16.55;7.32;;;8.60;99.90;;;;;;5053141;28;20059;-82
2023/03/23 07:20:57;;;;;;;13.38;6.18;;;8.60;99.90;;;;;;5052541;28;20053;-81
2023/03/23 07:23:32;;;;;;;7.07;3.80;;;8.60;99.90;;;;;;5073129;28;20040;-84
2023/03/23 07:26:07;;;;;;;8.60;5.38;;;8.80;99.90;;;;;;5037347;28;20068;-79
2023/03/23 07:28:48;;;;;;;9.35;5.60;;;9.10;99.90;;;;;;5035466;28;20040;-80
2023/03/23 07:31:25;;;;;;;7.15;5.18;;;9.20;99.90;;;;;;5051464;28;20409;-79
2023/03/23 07:33:54;;;;;;;6.82;4.00;;;9.30;99.90;;;;;;5052511;28;20135;-82
2023/03/23 07:36:27;;;;;;;7.63;4.60;;;9.30;99.90;;;;;;5046263;28;20095;-81
2023/03/23 07:38:55;;;;;;;7.38;3.85;;;9.70;99.90;;;;;;5070472;28;20127;-83
2023/03/23 07:41:23;;;;;;;6.88;4.03;;;10.10;99.90;;;;;;5050140;28;20044;-82
2023/03/23 07:43:53;;;;;;;5.45;4.18;;;10.40;99.90;;;;;;5052190;28;20044;-80
2023/03/23 07:46:24;;;;;;;4.47;3.50;;;10.40;99.90;;;;;;5050972;28;20040;-81
2023/03/23 07:48:59;;;;;;;7.90;4.60;;;10.20;99.90;;;;;;5035548;28;20509;-81
2023/03/23 07:51:38;;;;;;;6.50;3.72;;;10.10;99.90;;;;;;5048591;28;20060;-81
2023/03/23 07:54:07;;;;;;;4.30;3.55;;;10.00;99.90;;;;;;5051957;28;20143;-81
2023/03/23 07:56:53;;;;;;;3.92;3.15;;;9.90;99.90;;;;;;5070972;28;20542;-80
2023/03/23 07:59:31;;;;;;;5.30;3.90;;;10.10;99.90;;;;;;5066566;28;20048;-80
2023/03/23 08:02:00;;;;;;;6.18;4.40;;;10.80;99.90;;;;;;5053160;28;20675;-80
2023/03/23 08:04:47;;;;;;;5.70;4.47;;;11.00;99.90;;;;;;5071379;28;20512;-80
2023/03/23 08:07:18;;;;;;;4.70;3.63;;;11.40;99.90;;;;;;5052886;28;20143;-80
2023/03/23 08:10:00;;;;;;;3.78;3.28;;;11.40;99.90;;;;;;5070002;28;20512;-79
2023/03/23 08:12:47;;;;;;;5.32;2.97;;;11.20;99.90;;;;;;5071010;28;20048;-80
2023/03/23 08:15:37;;;;;;;3.92;3.40;;;11.00;99.90;;;;;;5041362;28;20583;-80
2023/03/23 08:18:26;;;;;;;5.43;2.88;;;11.10;99.90;;;;;;5053202;28;20059;-82
2023/03/23 08:21:20;;;;;;;2.55;2.35;;;11.20;99.90;;;;;;5054897;28;20063;-82
2023/03/23 08:24:08;;;;;;;2.92;2.65;;;11.10;99.90;;;;;;5065980;28;20056;-82
2023/03/23 08:26:52;;;;;;;3.42;3.08;;;11.30;99.90;;;;;;5086300;28;20056;-81
2023/03/23 08:29:46;;;;;;;5.68;2.85;;;11.60;99.90;;;;;;5056017;28;20040;-83
2023/03/23 08:32:37;;;;;;;3.20;2.58;;;11.80;99.90;;;;;;5047562;28;20167;-82
2023/03/23 08:35:16;;;;;;;3.70;2.80;;;11.50;99.90;;;;;;5046788;28;20045;-81
2023/03/23 08:37:57;;;;;;;4.03;2.70;;;11.60;99.90;;;;;;5057155;28;20496;-81
2023/03/23 08:40:49;;;;;;;4.03;2.95;;;11.80;99.90;;;;;;5041941;28;20052;-80
2023/03/23 08:43:28;;;;;;;4.50;3.50;;;12.40;99.90;;;;;;5066414;28;20044;-81
2023/03/23 08:46:14;;;;;;;4.38;3.22;;;12.70;99.90;;;;;;5068981;28;20040;-81
2023/03/23 08:49:02;;;;;;;4.53;3.03;;;13.10;99.90;;;;;;5036734;28;20043;-80
2023/03/23 08:52:00;;;;;;;3.92;3.55;;;;;;;;;;5062978;28;20138;-80
2023/03/23 08:54:48;;;;;;;2.90;2.70;;;15.40;99.90;;;;;;5062669;28;20045;-82
2023/03/23 08:57:34;;;;;;;5.88;2.55;;;14.70;99.90;;;;;;5052707;28;20048;-82
2023/03/23 09:00:19;;;;;;;5.22;2.63;;;14.20;99.90;;;;;;5071882;28;20040;-83
2023/03/23 09:03:06;;;;;;;2.95;2.75;;;13.80;99.90;;;;;;5070334;28;21040;-85
2023/03/23 09:05:49;;;;;;;5.28;3.20;;;13.20;99.90;;;;;;5053539;28;20045;-82
2023/03/23 09:08:18;;;;;;;3.83;2.83;;;12.70;99.90;;;;;;5069739;28;20045;-81
2023/03/23 09:10:49;;;;;;;3.25;2.83;;;12.30;99.90;;;;;;5045930;28;20048;-82
2023/03/23 09:13:20;;;;;;;5.28;3.22;;;11.90;99.90;;;;;;5071046;28;20044;-79
2023/03/23 09:15:47;;;;;;;7.90;4.10;;;11.60;99.90;;;;;;5072871;28;20147;-79
2023/03/23 09:18:15;;;;;;;4.15;3.65;;;11.60;99.90;;;;;;5055017;28;20083;-78
2023/03/23 09:20:43;;;;;;;6.70;4.25;;;11.50;99.90;;;;;;5049601;28;20087;-79
2023/03/23 09:23:12;;;;;;;5.75;3.50;;;11.40;99.90;;;;;;5072596;28;20049;-79
2023/03/23 09:25:51;;;;;;;14.05;3.75;;;11.30;99.90;;;;;;5083444;28;20044;-80
2023/03/23 09:28:23;;;;;;;;;;;11.20;99.90;;;;;;5071914;28;20040;-82
2023/03/23 09:30:51;;;;;;;3.40;3.10;;;12.50;99.90;;;;;;5068175;28;19966;-80
2023/03/23 09:33:19;;;;;;;5.35;3.10;;;13.40;99.90;;;;;;5053936;28;20135;-81
2023/03/23 09:35:47;;;;;;;7.13;3.63;;;13.40;99.90;;;;;;5069267;28;20567;-82
2023/03/23 09:38:14;;;;;;;5.68;3.55;;;13.80;99.90;;;;;;5068531;28;20040;-80
2023/03/23 09:40:49;;;;;;;6.50;3.20;;;13.60;99.90;;;;;;5071310;28;20063;-81
2023/03/23 09:43:57;;;;;;;6.60;2.60;;;13.50;99.90;;;;;;5052153;28;20156;-80
2023/03/23 09:46:46;;;;;;;10.70;3.08;;;14.10;99.90;;;;;;5068417;28;20047;-80
2023/03/23 09:49:20;;;;;;;5.00;2.78;;;14.80;99.90;;;;;;5064120;28;20049;-81
2023/03/23 09:51:52;;;;;;;6.20;2.88;;;14.40;99.90;;;;;;5070048;28;20063;-81
2023/03/23 09:54:26;;;;;;;3.60;2.42;;;14.10;99.90;;;;;;5037344;28;20064;-82
2023/03/23 09:56:56;;;;;;;4.55;2.58;;;14.20;99.90;;;;;;5049530;28;20099;-81
2023/03/23 09:59:31;;;;;;;6.57;2.70;;;13.70;99.90;;;;;;5069525;28;20071;-82
2023/03/23 10:02:12;;;;;;;7.38;2.38;;;13.30;99.90;;;;;;5050988;28;20523;-81
2023/03/23 10:04:46;;;;;;;6.63;1.90;;;13.80;99.90;;;;;;5072574;28;20488;-81
2023/03/23 10:07:17;;;;;;;6.13;2.10;;;14.40;99.90;;;;;;5047435;28;20123;-81
2023/03/23 10:09:48;;;;;;;3.50;2.15;;;14.00;99.90;;;;;;5033920;28;20048;-82
2023/03/23 10:12:29;;;;;;;4.00;1.85;;;14.30;99.90;;;;;;5071000;28;20406;-82
2023/03/23 10:15:14;;;;;;;6.57;2.72;;;14.30;99.90;;;;;;5070133;28;20130;-79
2023/03/23 10:17:50;;;;;;;6.25;2.30;;;14.30;99.90;;;;;;5069322;28;20075;-82
2023/03/23 10:20:33;;;;;;;5.70;2.20;;;13.90;99.90;;;;;;5053666;28;20048;-81
2023/03/23 10:23:25;;;;;;;4.43;2.20;;;13.60;99.90;;;;;;5049599;28;20054;-79
2023/03/23 10:25:56;;;;;;;3.40;2.35;;;13.30;99.90;;;;;;5067897;28;20053;-81
2023/03/23 10:28:37;;;;;;;5.70;2.28;;;12.90;99.90;;;;;;5033602;28;20053;-81
2023/03/23 10:31:11;;;;;;;6.22;2.33;;;12.80;99.90;;;;;;5074474;28;20120;-82
2023/03/23 10:33:42;;;;;;;4.72;2.35;;;13.00;99.90;;;;;;5071578;28;20055;-83
2023/03/23 10:36:16;;;;;;;5.15;2.28;;;13.20;99.90;;;;;;5070469;28;20044;-81
2023/03/23 10:38:48;;;;;;;7.78;2.30;;;13.50;99.90;;;;;;5068623;28;20049;-82
2023/03/23 10:41:18;;;;;;;7.43;2.47;;;14.60;99.90;;;;;;5042838;28;20494;-82
2023/03/23 10:43:53;;;;;;;5.50;2.47;;;15.50;99.90;;;;;;5071204;28;20052;-81
2023/03/23 10:46:36;;;;;;;9.45;2.50;;;15.70;99.90;;;;;;5069017;28;20061;-82
2023/03/23 10:49:10;;;;;;;5.43;2.40;;;16.00;99.90;;;;;;5050907;28;20111;-81
2023/03/23 10:51:44;;;;;;;11.70;3.42;;;16.80;98.20;;;;;;5064014;28;20053;-82
2023/03/23 10:54:13;;;;;;;8.95;2.58;;;17.70;94.40;;;;;;5050659;28;20102;-82
2023/03/23 10:56:43;;;;;;;8.00;2.50;;;17.80;91.30;;;;;;5073139;28;20049;-79
2023/03/23 10:59:21;;;;;;;3.00;1.95;;;17.00;91.10;;;;;;5072869;28;20132;-81
2023/03/23 11:01:54;;;;;;;5.20;2.13;;;16.30;92.50;;;;;;5071928;28;20087;-80
2023/03/23 11:04:23;;;;;;;4.20;2.45;;;15.70;92.60;;;;;;5042881;28;20067;-79
2023/03/23 11:06:59;;;;;;;2.53;1.83;;;15.30;94.30;;;;;;5068426;28;20048;-80
2023/03/23 11:09:37;;;;;;;3.70;2.47;;;15.50;93.50;;;;;;5071904;28;20044;-80
2023/03/23 11:12:05;;;;;;;4.35;2.10;;;16.00;92.50;;;;;;5060982;28;20513;-80
2023/03/23 11:14:38;;;;;;;4.00;2.20;;;16.20;92.20;;;;;;5050768;28;20135;-81
2023/03/23 11:17:26;;;;;;;5.68;2.15;;;15.80;92.30;;;;;;5084346;28;20440;-79
2023/03/23 11:19:55;;;;;;;5.70;2.17;;;15.20;93.80;;;;;;5070060;28;20052;-81
2023/03/23 11:22:28;;;;;;;6.45;2.30;;;15.20;95.20;;;;;;5070976;28;20041;-80
2023/03/23 11:24:58;;;;;;;;;;;16.20;93.90;;;;;;5050907;28;20127;-80
2023/03/23 11:27:28;;;;;;;10.60;2.40;;;16.60;91.30;;;;;;5068442;28;19935;-80
2023/03/23 11:30:00;;;;;;;8.38;2.50;;;16.90;90.40;;;;;;5067346;28;20045;-80
2023/03/23 11:32:31;;;;;;;15.95;3.08;;;16.70;89.90;;;;;;5033965;28;20048;-79
2023/03/23 11:35:01;;;;;;;12.02;3.22;;;16.60;90.50;;;;;;5069345;28;20566;-79
2023/03/23 11:37:34;;;;;;;10.77;2.65;;;16.20;90.50;;;;;;5070319;28;21034;-79
2023/03/23 11:40:12;;;;;;;8.32;2.55;;;15.70;91.60;;;;;;5064035;28;20122;-79
2023/03/23 11:42:45;;;;;;;11.57;2.60;;;15.70;92.30;;;;;;5063613;28;20401;-78
2023/03/23 11:45:22;;;;;;;12.05;3.10;;;15.70;91.90;;;;;;5070668;28;20576;-79
2023/03/23 11:48:06;;;;;;;16.17;3.47;;;15.40;92.50;;;;;;5061614;28;20060;-78
2023/03/23 11:50:45;;;;;;;5.85;3.10;;;15.00;93.00;;;;;;5069050;28;20047;-78
2023/03/23 11:53:24;;;;;;;6.28;3.03;;;14.70;93.70;;;;;;5071059;28;20425;-81
2023/03/23 11:56:13;;;;;;;8.25;2.92;;;14.50;94.50;;;;;;5075206;28;20113;-78
2023/03/23 11:58:41;;;;;;;6.72;2.60;;;14.20;95.70;;;;;;5065266;28;20064;-80
2023/03/23 12:01:28;;;;;;;6.93;2.33;;;14.10;96.70;;;;;;5033342;28;20067;-78
2023/03/23 12:04:36;;;;;;;3.97;2.58;;;14.40;95.30;;;;;;5040646;28;20508;-79
2023/03/23 12:07:31;;;;;;;2.40;2.20;;;14.60;94.30;;;;;;4990634;28;20045;-79
2023/03/23 12:10:15;;;;;;;2.72;2.40;;;15.20;93.20;;;;;;5049603;28;20121;-78
2023/03/23 12:12:52;;;;;;;8.98;3.20;;;15.30;92.90;;;;;;5057964;28;20044;-80
2023/03/23 12:15:31;;;;;;;3.55;2.70;;;15.00;93.40;;;;;;5051372;28;20053;-77
2023/03/23 12:18:10;;;;;;;5.93;2.60;;;14.70;93.80;;;;;;5068723;28;20062;-79
2023/03/23 12:20:58;;;;;;;8.07;3.22;;;14.60;94.50;;;;;;5071983;28;20064;-80
2023/03/23 12:23:32;;;;;;;18.70;3.30;;;14.60;94.20;;;;;;5068253;28;20051;-80
2023/03/23 12:26:18;;;;;;;8.43;3.10;;;14.70;94.70;;;;;;5067641;28;20049;-79
2023/03/23 12:29:26;;;;;;;11.52;2.78;;;14.70;93.40;;;;;;5053213;28;20056;-79
2023/03/23 12:32:15;;;;;;;3.42;2.42;;;14.80;92.90;;;;;;5069347;28;20044;-79
2023/03/23 12:34:50;;;;;;;7.90;2.90;;;14.50;92.80;;;;;;5064103;28;20118;-79
2023/03/23 12:37:37;;;;;;;7.78;3.10;;;14.90;92.60;;;;;;5062704;28;20075;-79
2023/03/23 12:40:36;;;;;;;4.07;2.63;;;15.00;91.20;;;;;;5070772;28;20048;-79
2023/03/23 12:43:14;;;;;;;5.45;2.92;;;14.40;92.10;;;;;;5050317;28;20049;-79
2023/03/23 12:45:59;;;;;;;7.88;2.70;;;13.90;93.20;;;;;;5070998;28;20051;-80
2023/03/23 12:48:31;;;;;;;4.38;2.28;;;13.50;94.20;;;;;;5070942;28;20238;-77
2023/03/23 12:51:14;;;;;;;5.72;2.60;;;13.20;95.00;;;;;;5070545;28;20082;-77
2023/03/23 12:53:53;;;;;;;12.48;2.80;;;12.90;96.50;;;;;;5037874;28;20057;-79
2023/03/23 12:56:29;;;;;;;9.07;2.92;;;12.90;97.00;;;;;;5066387;28;20049;-79
2023/03/23 12:59:08;;;;;;;9.15;2.78;;;12.90;97.40;;;;;;5059792;28;20060;-77
2023/03/23 13:01:43;;;;;;;5.30;2.55;;;13.30;97.10;;;;;;5070128;28;20048;-77
2023/03/23 13:04:17;;;;;;;6.60;2.58;;;13.70;95.90;;;;;;5070787;28;20139;-77
2023/03/23 13:06:48;;;;;;;5.40;2.17;;;13.70;95.60;;;;;;5070844;28;20048;-78
2023/03/23 13:09:23;;;;;;;8.43;2.47;;;13.50;95.50;;;;;;5067793;28;20049;-79
2023/03/23 13:11:52;;;;;;;8.05;2.65;;;13.40;96.00;;;;;;5067969;28;20106;-79
2023/03/23 13:14:36;;;;;;;5.90;2.83;;;13.30;96.70;;;;;;5070740;28;20509;-79
2023/03/23 13:17:16;;;;;;;11.27;2.65;;;13.10;97.50;;;;;;5070179;28;20063;-77
2023/03/23 13:20:32;;;;;;;13.43;3.05;;;13.20;97.50;;;;;;5048613;28;20052;-79
2023/03/23 13:23:06;;;;;;;4.93;1.92;;;13.30;96.80;;;;;;5016229;28;20052;-79
2023/03/23 13:25:57;;;;;;;5.32;2.10;;;13.60;95.80;;;;;;5033886;28;20048;-79
2023/03/23 13:28:28;;;;;;;8.73;2.42;;;14.00;94.40;;;;;;5049448;28;20060;-78
2023/03/23 13:31:02;;;;;;;6.78;2.47;;;14.20;93.70;;;;;;5068898;28;20052;-80
2023/03/23 13:33:36;;;;;;;9.85;2.35;;;14.20;93.40;;;;;;5068006;28;20047;-79
2023/03/23 13:36:13;;;;;;;12.10;2.30;;;14.30;92.70;;;;;;5058343;28;20077;-80